createdAt,value
2024-02-28T00:01:13.548Z,85.13
2024-02-28T00:03:40.088Z,85.18
2024-02-28T00:06:06.706Z,85.17
2024-02-28T00:08:33.145Z,85.62
2024-02-28T00:10:59.640Z,85.47
2024-02-28T00:13:26.112Z,85.44
2024-02-28T00:15:52.678Z,85.39
2024-02-28T00:18:20.309Z,85.26
2024-02-28T00:20:46.979Z,85.38
2024-02-28T00:23:13.441Z,85.52
2024-02-28T00:25:39.916Z,85.40
2024-02-28T00:28:06.355Z,85.47
2024-02-28T00:30:33.990Z,85.33
2024-02-28T00:33:01.414Z,85.43
2024-02-28T00:35:27.913Z,84.72
2024-02-28T00:37:54.400Z,84.74
2024-02-28T00:40:20.959Z,84.86
2024-02-28T00:42:47.636Z,84.79
2024-02-28T00:45:14.117Z,85.54
2024-02-28T00:47:41.464Z,85.25
2024-02-28T00:50:08.503Z,85.23
2024-02-28T00:52:35.025Z,85.44
2024-02-28T00:55:01.672Z,85.82
2024-02-28T00:57:28.277Z,85.34
2024-02-28T00:59:55.756Z,85.62
2024-02-28T01:02:22.783Z,85.84
2024-02-28T01:04:49.354Z,86.45
2024-02-28T01:07:15.851Z,86.38
2024-02-28T01:09:42.312Z,86.24
2024-02-28T01:12:08.948Z,86.02
2024-02-28T01:14:35.406Z,86.02
2024-02-28T01:17:01.845Z,86.18
2024-02-28T01:19:28.338Z,86.47
2024-02-28T01:21:54.870Z,85.95
2024-02-28T01:24:21.562Z,85.82
2024-02-28T01:26:48.056Z,85.90
2024-02-28T01:29:14.535Z,85.72
2024-02-28T01:31:41.027Z,85.16
2024-02-28T01:34:07.876Z,86.01
2024-02-28T01:36:34.369Z,85.36
2024-02-28T01:39:00.822Z,85.86
2024-02-28T01:41:27.274Z,85.31
2024-02-28T01:43:54.793Z,85.24
2024-02-28T01:46:25.208Z,85.84
2024-02-28T01:48:52.130Z,85.67
2024-02-28T01:51:19.069Z,85.80
2024-02-28T01:53:46.600Z,85.48
2024-02-28T01:56:15.544Z,86.00
2024-02-28T01:58:44.596Z,86.62
2024-02-28T02:01:12.318Z,86.28
2024-02-28T02:03:38.897Z,86.14
2024-02-28T02:06:06.324Z,86.44
2024-02-28T02:08:33.975Z,86.40
2024-02-28T02:11:00.517Z,86.52
2024-02-28T02:13:26.993Z,86.80
2024-02-28T02:15:53.585Z,86.50
2024-02-28T02:18:20.227Z,86.38
2024-02-28T02:20:51.524Z,86.36
2024-02-28T02:23:18.001Z,86.42
2024-02-28T02:25:54.627Z,86.91
2024-02-28T02:28:20.979Z,86.78
2024-02-28T02:30:48.506Z,86.58
2024-02-28T02:33:15.459Z,86.33
2024-02-28T02:35:41.927Z,86.04
2024-02-28T02:38:08.366Z,85.94
2024-02-28T02:40:34.767Z,86.08
2024-02-28T02:43:01.210Z,86.44
2024-02-28T02:45:27.689Z,86.63
2024-02-28T02:47:54.220Z,86.06
2024-02-28T02:50:20.723Z,86.36
2024-02-28T02:52:47.199Z,86.71
2024-02-28T02:55:13.838Z,86.47
2024-02-28T02:57:41.201Z,86.21
2024-02-28T03:00:11.902Z,86.02
2024-02-28T03:02:41.226Z,86.19
2024-02-28T03:05:08.432Z,85.60
2024-02-28T03:07:34.906Z,85.95
2024-02-28T03:10:01.434Z,85.97
2024-02-28T03:12:27.963Z,85.77
2024-02-28T03:14:54.436Z,86.04
2024-02-28T03:17:20.988Z,85.34
2024-02-28T03:19:48.300Z,85.54
2024-02-28T03:22:14.929Z,85.84
2024-02-28T03:24:41.470Z,85.28
2024-02-28T03:27:07.991Z,85.49
2024-02-28T03:29:34.467Z,84.66
2024-02-28T03:32:01.163Z,84.61
2024-02-28T03:34:27.733Z,84.61
2024-02-28T03:36:54.298Z,84.81
2024-02-28T03:39:20.818Z,84.97
2024-02-28T03:41:47.264Z,84.79
2024-02-28T03:44:13.858Z,85.00
2024-02-28T03:46:40.289Z,85.36
2024-02-28T03:49:06.935Z,84.81
2024-02-28T03:51:33.436Z,84.99
2024-02-28T03:53:59.889Z,84.80
2024-02-28T03:56:27.296Z,84.90
2024-02-28T03:58:54.555Z,85.30
2024-02-28T04:01:21.193Z,85.49
2024-02-28T04:03:47.841Z,84.42
2024-02-28T04:06:14.576Z,84.38
2024-02-28T04:08:44.573Z,84.36
2024-02-28T04:11:11.184Z,84.70
2024-02-28T04:13:37.629Z,84.84
2024-02-28T04:16:04.788Z,84.73
2024-02-28T04:18:31.510Z,84.17
2024-02-28T04:20:58.164Z,84.66
2024-02-28T04:23:24.613Z,84.00
2024-02-28T04:25:51.069Z,84.33
2024-02-28T04:28:17.571Z,84.45
2024-02-28T04:30:44.788Z,84.24
2024-02-28T04:33:11.345Z,84.35
2024-02-28T04:35:37.832Z,83.83
2024-02-28T04:38:04.513Z,83.62
2024-02-28T04:40:30.973Z,84.07
2024-02-28T04:42:57.472Z,84.01
2024-02-28T04:45:24.116Z,84.02
2024-02-28T04:47:52.831Z,84.24
2024-02-28T04:50:19.444Z,84.17
2024-02-28T04:52:45.869Z,83.67
2024-02-28T04:55:13.437Z,83.79
2024-02-28T04:57:40.086Z,81.93
2024-02-28T05:00:08.618Z,83.09
2024-02-28T05:02:35.222Z,83.84
2024-02-28T05:05:01.918Z,83.92
2024-02-28T05:07:28.393Z,83.73
2024-02-28T05:09:54.927Z,83.22
2024-02-28T05:12:21.410Z,83.13
2024-02-28T05:14:47.843Z,83.66
2024-02-28T05:17:14.355Z,83.71
2024-02-28T05:19:40.978Z,84.17
2024-02-28T05:22:07.727Z,83.84
2024-02-28T05:24:34.250Z,83.31
2024-02-28T05:27:00.764Z,83.47
2024-02-28T05:29:27.359Z,84.13
2024-02-28T05:31:53.898Z,83.96
2024-02-28T05:34:20.926Z,82.72
2024-02-28T05:36:47.624Z,82.36
2024-02-28T05:39:14.356Z,82.99
2024-02-28T05:41:40.829Z,82.02
2024-02-28T05:44:07.467Z,81.39
2024-02-28T05:46:34.393Z,80.76
2024-02-28T05:49:00.966Z,81.55
2024-02-28T05:51:27.551Z,81.30
2024-02-28T05:53:53.999Z,80.92
2024-02-28T05:56:20.958Z,81.63
2024-02-28T05:58:48.696Z,82.72
2024-02-28T06:01:19.609Z,83.26
2024-02-28T06:03:48.473Z,83.39
2024-02-28T06:06:15.543Z,83.46
2024-02-28T06:08:42.632Z,84.12
2024-02-28T06:11:09.587Z,84.20
2024-02-28T06:13:36.777Z,84.86
2024-02-28T06:16:04.475Z,84.65
2024-02-28T06:18:34.570Z,84.85
2024-02-28T06:21:04.127Z,84.74
2024-02-28T06:23:30.899Z,84.89
2024-02-28T06:25:58.224Z,84.91
2024-02-28T06:28:25.332Z,84.80
2024-02-28T06:30:51.953Z,85.03
2024-02-28T06:33:18.770Z,84.95
2024-02-28T06:35:45.512Z,84.82
2024-02-28T06:38:11.997Z,84.43
2024-02-28T06:40:39.213Z,84.21
2024-02-28T06:43:06.276Z,84.08
2024-02-28T06:45:33.114Z,83.79
2024-02-28T06:48:00.020Z,84.17
2024-02-28T06:50:26.790Z,83.46
2024-02-28T06:52:54.784Z,83.26
2024-02-28T06:55:22.099Z,83.29
2024-02-28T06:57:48.757Z,82.52
2024-02-28T07:00:16.097Z,84.01
2024-02-28T07:02:42.799Z,84.33
2024-02-28T07:05:09.521Z,83.36
2024-02-28T07:07:36.057Z,82.80
2024-02-28T07:10:05.585Z,83.05
2024-02-28T07:12:32.450Z,82.96
2024-02-28T07:14:59.278Z,82.54
2024-02-28T07:17:25.965Z,83.54
2024-02-28T07:19:52.592Z,82.40
2024-02-28T07:22:19.165Z,82.36
2024-02-28T07:24:45.839Z,82.22
2024-02-28T07:27:12.473Z,81.89
2024-02-28T07:29:39.014Z,81.70
2024-02-28T07:32:06.166Z,81.82
2024-02-28T07:34:32.687Z,81.56
2024-02-28T07:36:59.189Z,81.60
2024-02-28T07:39:26.026Z,81.67
2024-02-28T07:41:55.864Z,81.25
2024-02-28T07:44:22.953Z,81.53
2024-02-28T07:46:51.589Z,80.68
2024-02-28T07:49:18.111Z,79.36
2024-02-28T07:51:44.755Z,79.68
2024-02-28T07:54:11.301Z,79.98
2024-02-28T07:56:37.720Z,80.10
2024-02-28T07:59:04.232Z,80.36
2024-02-28T08:01:32.058Z,79.54
2024-02-28T08:03:58.842Z,78.80
2024-02-28T08:06:25.548Z,78.33
2024-02-28T08:08:52.270Z,78.78
2024-02-28T08:11:20.111Z,79.16
2024-02-28T08:13:46.820Z,79.16
2024-02-28T08:16:13.714Z,78.98
2024-02-28T08:18:40.370Z,79.25
2024-02-28T08:21:06.947Z,78.63
2024-02-28T08:23:33.398Z,79.17
2024-02-28T08:25:59.849Z,80.18
2024-02-28T08:28:26.407Z,79.67
2024-02-28T08:30:52.932Z,79.18
2024-02-28T08:33:21.810Z,78.16
2024-02-28T08:35:51.257Z,77.85
2024-02-28T08:38:17.798Z,77.80
2024-02-28T08:40:44.266Z,78.03
2024-02-28T08:43:10.749Z,77.15
2024-02-28T08:45:38.862Z,77.77
2024-02-28T08:48:06.967Z,77.36
2024-02-28T08:50:33.512Z,77.12
2024-02-28T08:52:59.962Z,76.13
2024-02-28T08:55:26.537Z,75.74
2024-02-28T08:57:53.368Z,75.32
2024-02-28T09:00:20.039Z,75.24
2024-02-28T09:02:46.589Z,75.88
2024-02-28T09:05:13.320Z,75.91
2024-02-28T09:07:39.802Z,75.39
2024-02-28T09:10:07.638Z,75.12
2024-02-28T09:12:34.278Z,74.85
2024-02-28T09:15:01.116Z,70.92
2024-02-28T09:17:27.707Z,71.53
2024-02-28T09:19:55.200Z,72.37
2024-02-28T09:22:22.540Z,73.22
2024-02-28T09:24:50.063Z,73.13
2024-02-28T09:27:16.891Z,73.43
2024-02-28T09:29:43.424Z,74.08
2024-02-28T09:32:10.360Z,75.38
2024-02-28T09:34:38.464Z,74.20
2024-02-28T09:37:07.653Z,74.88
2024-02-28T09:39:34.126Z,73.90
2024-02-28T09:42:01.539Z,73.05
2024-02-28T09:44:28.269Z,72.44
2024-02-28T09:46:54.733Z,71.26
2024-02-28T09:49:21.506Z,70.77
2024-02-28T09:51:53.772Z,70.82
2024-02-28T09:54:20.925Z,70.62
2024-02-28T09:56:49.214Z,70.20
2024-02-28T09:59:17.085Z,69.74
2024-02-28T10:01:45.650Z,68.38
2024-02-28T10:04:14.676Z,68.81
2024-02-28T10:06:42.075Z,68.03
2024-02-28T10:09:08.839Z,67.76
2024-02-28T10:11:36.771Z,68.14
2024-02-28T10:14:03.689Z,68.52
2024-02-28T10:16:30.448Z,69.45
2024-02-28T10:18:57.171Z,69.62
2024-02-28T10:21:25.457Z,69.83
2024-02-28T10:23:52.070Z,70.09
2024-02-28T10:26:18.694Z,69.20
2024-02-28T10:28:46.543Z,70.09
2024-02-28T10:31:13.599Z,70.54
2024-02-28T10:33:43.016Z,70.43
2024-02-28T10:36:10.136Z,69.19
2024-02-28T10:38:39.512Z,69.85
2024-02-28T10:41:08.434Z,70.74
2024-02-28T10:43:36.449Z,70.35
2024-02-28T10:48:32.699Z,70.68
2024-02-28T10:50:59.709Z,70.06
2024-02-28T10:53:39.812Z,68.52
2024-02-28T10:56:07.130Z,67.80
2024-02-28T10:58:40.533Z,67.01
2024-02-28T11:01:09.419Z,68.75
2024-02-28T11:03:36.344Z,68.57
2024-02-28T11:06:02.994Z,69.03
2024-02-28T11:08:30.954Z,69.22
2024-02-28T11:11:04.916Z,69.00
2024-02-28T11:13:35.681Z,67.86
2024-02-28T11:16:09.526Z,66.78
2024-02-28T11:18:36.175Z,65.82
2024-02-28T11:21:05.023Z,66.00
2024-02-28T11:23:38.821Z,65.44
2024-02-28T11:26:05.408Z,65.32
2024-02-28T11:28:31.848Z,66.37
2024-02-28T11:30:58.372Z,65.47
2024-02-28T11:33:25.107Z,65.54
2024-02-28T11:35:59.088Z,66.05
2024-02-28T11:38:28.588Z,65.87
2024-02-28T11:40:56.266Z,66.50
2024-02-28T11:43:23.295Z,66.52
2024-02-28T11:45:50.006Z,66.59
2024-02-28T11:48:17.393Z,66.91
2024-02-28T11:50:44.053Z,67.86
2024-02-28T11:53:10.637Z,68.73
2024-02-28T11:55:39.235Z,68.58
2024-02-28T11:58:10.852Z,68.44
2024-02-28T12:00:53.248Z,68.43
2024-02-28T12:03:24.044Z,68.91
2024-02-28T12:05:51.504Z,68.48
2024-02-28T12:08:20.121Z,68.76
2024-02-28T12:10:49.832Z,68.54
2024-02-28T12:13:19.657Z,68.74
2024-02-28T12:15:46.915Z,67.74
2024-02-28T12:18:15.954Z,67.84
2024-02-28T12:20:42.709Z,68.42
2024-02-28T12:23:09.388Z,68.20
2024-02-28T12:25:36.151Z,68.37
2024-02-28T12:28:03.934Z,67.42
2024-02-28T12:30:30.559Z,67.63
2024-02-28T12:32:57.116Z,65.74
2024-02-28T12:35:23.620Z,66.34
2024-02-28T12:37:50.205Z,66.25
2024-02-28T12:40:18.180Z,66.28
2024-02-28T12:42:44.965Z,66.00
2024-02-28T12:45:11.959Z,65.46
2024-02-28T12:47:39.350Z,63.71
2024-02-28T12:50:08.133Z,63.45
2024-02-28T12:52:35.241Z,62.99
2024-02-28T12:55:02.140Z,63.47
2024-02-28T12:57:29.230Z,63.38
2024-02-28T12:59:57.076Z,61.67
2024-02-28T13:02:23.852Z,58.89
2024-02-28T13:04:50.376Z,57.62
2024-02-28T13:07:17.222Z,55.25
2024-02-28T13:09:43.883Z,54.07
2024-02-28T13:12:10.734Z,51.60
2024-02-28T13:14:37.317Z,51.53
2024-02-28T13:17:05.144Z,50.86
2024-02-28T13:19:32.202Z,48.50
2024-02-28T13:21:58.999Z,48.10
2024-02-28T13:24:25.605Z,46.45
2024-02-28T13:26:52.179Z,45.64
2024-02-28T13:29:19.001Z,45.56
2024-02-28T13:31:45.622Z,46.41
2024-02-28T13:34:12.211Z,45.28
2024-02-28T13:36:43.600Z,45.79
2024-02-28T13:39:13.072Z,45.80
2024-02-28T13:41:40.678Z,45.95
2024-02-28T13:44:07.323Z,45.69
2024-02-28T13:46:34.036Z,44.96
2024-02-28T13:49:00.633Z,45.30
2024-02-28T13:51:27.561Z,46.46
2024-02-28T13:53:55.259Z,47.40
2024-02-28T13:56:22.211Z,48.67
2024-02-28T13:58:53.707Z,48.31
2024-02-28T14:01:21.569Z,46.90
2024-02-28T14:03:48.457Z,45.28
2024-02-28T14:06:15.236Z,45.52
2024-02-28T14:08:43.627Z,43.70
2024-02-28T14:11:11.446Z,43.55
2024-02-28T14:13:40.846Z,42.50
2024-02-28T14:16:07.568Z,42.10
2024-02-28T14:18:34.341Z,42.43
2024-02-28T14:21:03.424Z,42.03
2024-02-28T14:23:32.059Z,43.34
2024-02-28T14:25:58.794Z,43.36
2024-02-28T14:28:25.519Z,44.66
2024-02-28T14:30:52.304Z,46.06
2024-02-28T14:33:19.129Z,45.16
2024-02-28T14:35:45.726Z,45.33
2024-02-28T14:38:12.179Z,42.57
2024-02-28T14:40:38.937Z,43.33
2024-02-28T14:43:06.781Z,44.14
2024-02-28T14:45:33.591Z,44.61
2024-02-28T14:48:00.285Z,44.54
2024-02-28T14:50:26.901Z,44.88
2024-02-28T14:52:53.362Z,45.95
2024-02-28T14:55:19.918Z,46.83
2024-02-28T14:57:46.529Z,46.37
2024-02-28T15:00:16.487Z,46.46
2024-02-28T15:02:43.512Z,47.90
2024-02-28T15:05:10.241Z,48.57
2024-02-28T15:07:37.458Z,50.15
2024-02-28T15:10:07.285Z,50.77
2024-02-28T15:12:34.695Z,50.65
2024-02-28T15:15:03.707Z,50.89
2024-02-28T15:17:30.400Z,50.31
2024-02-28T15:19:57.029Z,50.17
2024-02-28T15:22:23.761Z,49.99
2024-02-28T15:24:53.504Z,50.04
2024-02-28T15:27:20.216Z,50.47
2024-02-28T15:29:46.883Z,50.28
2024-02-28T15:32:13.665Z,50.88
2024-02-28T15:34:40.684Z,50.76
2024-02-28T15:37:07.352Z,50.44
2024-02-28T15:39:34.174Z,52.31
2024-02-28T15:42:03.537Z,53.10
2024-02-28T15:44:30.092Z,52.65
2024-02-28T15:46:58.073Z,51.96
2024-02-28T15:49:33.056Z,52.23
2024-02-28T15:52:08.744Z,53.34
2024-02-28T15:54:37.763Z,53.28
2024-02-28T15:57:04.859Z,53.83
2024-02-28T15:59:31.739Z,54.72
2024-02-28T16:02:01.580Z,56.11
2024-02-28T16:04:28.096Z,56.13
2024-02-28T16:06:54.646Z,57.28
2024-02-28T16:09:21.226Z,57.37
2024-02-28T16:11:47.744Z,57.84
2024-02-28T16:14:14.729Z,57.58
2024-02-28T16:16:41.533Z,58.24
2024-02-28T16:19:15.560Z,58.90
2024-02-28T16:21:50.632Z,58.91
2024-02-28T16:24:17.433Z,59.02
2024-02-28T16:26:44.112Z,58.87
2024-02-28T16:29:10.725Z,59.49
2024-02-28T16:31:37.206Z,59.08
2024-02-28T16:34:03.865Z,59.76
2024-02-28T16:36:31.441Z,60.53
2024-02-28T16:38:58.204Z,60.23
2024-02-28T16:41:24.866Z,61.01
2024-02-28T16:43:51.921Z,61.08
2024-02-28T16:46:20.887Z,61.48
2024-02-28T16:48:47.616Z,61.85
2024-02-28T16:51:14.228Z,62.75
2024-02-28T16:53:40.717Z,62.93
2024-02-28T16:56:07.295Z,63.11
2024-02-28T16:58:36.274Z,63.33
2024-02-28T17:01:03.206Z,63.30
2024-02-28T17:03:29.853Z,63.61
2024-02-28T17:05:56.471Z,63.69
2024-02-28T17:08:22.948Z,63.74
2024-02-28T17:10:49.547Z,63.95
2024-02-28T17:13:16.100Z,63.97
2024-02-28T17:15:43.402Z,64.34
2024-02-28T17:18:10.115Z,63.94
2024-02-28T17:20:36.659Z,63.90
2024-02-28T17:23:03.892Z,64.75
2024-02-28T17:25:30.392Z,64.93
2024-02-28T17:27:57.039Z,64.58
2024-02-28T17:30:23.582Z,64.48
2024-02-28T17:32:51.195Z,64.53
2024-02-28T17:35:17.743Z,65.02
2024-02-28T17:37:45.867Z,64.91
2024-02-28T17:40:15.102Z,65.07
2024-02-28T17:42:41.940Z,64.92
2024-02-28T17:45:10.336Z,65.08
2024-02-28T17:47:38.123Z,65.12
2024-02-28T17:50:06.407Z,65.55
2024-02-28T17:52:32.869Z,65.79
2024-02-28T17:54:59.552Z,66.43
2024-02-28T17:57:26.348Z,66.33
2024-02-28T17:59:53.548Z,66.47
2024-02-28T18:02:20.201Z,66.51
2024-02-28T18:04:46.794Z,66.67
2024-02-28T18:07:14.956Z,66.90
2024-02-28T18:09:41.403Z,67.49
2024-02-28T18:12:08.052Z,66.81
2024-02-28T18:14:35.840Z,67.64
2024-02-28T18:17:03.498Z,67.83
2024-02-28T18:19:30.273Z,67.54
2024-02-28T18:21:58.115Z,67.46
2024-02-28T18:24:24.842Z,68.20
2024-02-28T18:26:51.395Z,68.23
2024-02-28T18:29:18.111Z,68.38
2024-02-28T18:31:44.718Z,67.52
2024-02-28T18:34:11.275Z,67.91
2024-02-28T18:36:37.903Z,68.62
2024-02-28T18:39:05.394Z,68.67
2024-02-28T18:41:31.967Z,68.60
2024-02-28T18:43:58.460Z,68.32
2024-02-28T18:46:24.991Z,69.32
2024-02-28T18:48:54.441Z,69.26
2024-02-28T18:51:20.981Z,69.19
2024-02-28T18:53:47.449Z,69.47
2024-02-28T18:56:14.020Z,69.42
2024-02-28T18:58:41.034Z,69.42
2024-02-28T19:01:07.728Z,69.22
2024-02-28T19:03:34.447Z,69.54
2024-02-28T19:06:00.989Z,69.62
2024-02-28T19:08:27.595Z,69.77
2024-02-28T19:10:54.493Z,70.00
2024-02-28T19:13:21.000Z,70.01
2024-02-28T19:15:48.177Z,70.05
2024-02-28T19:18:14.636Z,70.46
2024-02-28T19:20:41.158Z,70.62
2024-02-28T19:23:07.657Z,70.71
2024-02-28T19:25:34.170Z,71.33
2024-02-28T19:28:00.671Z,71.37
2024-02-28T19:30:27.178Z,71.38
2024-02-28T19:32:56.585Z,71.78
2024-02-28T19:35:23.529Z,71.78
2024-02-28T19:37:50.048Z,71.95
2024-02-28T19:40:16.642Z,72.30
2024-02-28T19:42:43.306Z,71.76
2024-02-28T19:45:10.615Z,72.62
2024-02-28T19:47:37.288Z,72.31
2024-02-28T19:50:04.176Z,72.54
2024-02-28T19:52:30.715Z,72.82
2024-02-28T19:54:57.357Z,72.73
2024-02-28T19:57:23.858Z,72.87
2024-02-28T19:59:50.641Z,72.83
2024-02-28T20:02:17.148Z,72.60
2024-02-28T20:04:43.689Z,73.23
2024-02-28T20:07:10.413Z,72.86
2024-02-28T20:09:37.595Z,72.74
2024-02-28T20:12:07.914Z,72.99
2024-02-28T20:14:35.127Z,73.53
2024-02-28T20:17:15.547Z,73.95
2024-02-28T20:19:44.509Z,73.94
2024-02-28T20:22:11.262Z,73.84
2024-02-28T20:24:37.776Z,74.16
2024-02-28T20:27:04.557Z,74.20
2024-02-28T20:29:31.081Z,74.68
2024-02-28T20:31:57.575Z,74.26
2024-02-28T20:34:25.431Z,75.05
2024-02-28T20:36:51.970Z,74.28
2024-02-28T20:39:18.471Z,74.56
2024-02-28T20:41:45.581Z,74.67
2024-02-28T20:44:12.064Z,74.50
2024-02-28T20:46:38.825Z,74.78
2024-02-28T20:49:07.025Z,74.65
2024-02-28T20:51:33.540Z,75.06
2024-02-28T20:54:00.843Z,74.64
2024-02-28T20:56:27.450Z,75.23
2024-02-28T20:58:56.001Z,74.80
2024-02-28T21:01:25.441Z,75.13
2024-02-28T21:04:03.167Z,75.05
2024-02-28T21:06:31.105Z,74.73
2024-02-28T21:08:58.028Z,75.01
2024-02-28T21:11:24.785Z,74.89
2024-02-28T21:13:54.746Z,74.89
2024-02-28T21:16:22.990Z,75.50
2024-02-28T21:18:52.315Z,75.63
2024-02-28T21:21:20.308Z,75.39
2024-02-28T21:23:47.254Z,76.17
2024-02-28T21:26:14.754Z,75.88
2024-02-28T21:28:41.330Z,75.61
2024-02-28T21:31:07.947Z,76.25
2024-02-28T21:33:34.858Z,76.26
2024-02-28T21:36:01.582Z,75.89
2024-02-28T21:38:28.119Z,75.89
2024-02-28T21:40:54.553Z,76.56
2024-02-28T21:43:21.096Z,76.19
2024-02-28T21:45:47.639Z,75.84
2024-02-28T21:48:15.907Z,76.11
2024-02-28T21:50:43.811Z,75.72
2024-02-28T21:53:10.409Z,75.90
2024-02-28T21:55:37.083Z,76.24
2024-02-28T21:58:03.786Z,76.63
2024-02-28T22:00:30.762Z,76.21
2024-02-28T22:02:57.490Z,76.51
2024-02-28T22:05:25.126Z,76.66
2024-02-28T22:07:51.805Z,76.44
2024-02-28T22:10:18.538Z,76.00
2024-02-28T22:12:45.370Z,77.47
2024-02-28T22:15:13.365Z,77.08
2024-02-28T22:17:39.982Z,77.39
2024-02-28T22:20:07.231Z,77.66
2024-02-28T22:22:33.863Z,77.26
2024-02-28T22:25:00.560Z,77.10
2024-02-28T22:27:27.349Z,77.31
2024-02-28T22:29:55.272Z,76.96
2024-02-28T22:32:22.729Z,77.14
2024-02-28T22:34:49.172Z,78.00
2024-02-28T22:37:15.754Z,77.99
2024-02-28T22:39:42.424Z,78.21
2024-02-28T22:42:08.944Z,78.38
2024-02-28T22:44:35.470Z,78.79
2024-02-28T22:47:01.913Z,78.86
2024-02-28T22:49:29.163Z,78.62
2024-02-28T22:51:55.712Z,77.81
2024-02-28T22:54:24.085Z,78.71
2024-02-28T22:56:50.828Z,78.22
2024-02-28T22:59:18.275Z,78.04
2024-02-28T23:01:46.301Z,78.79
2024-02-28T23:04:13.030Z,78.84
2024-02-28T23:06:40.770Z,79.51
2024-02-28T23:09:07.485Z,79.32
2024-02-28T23:11:34.545Z,79.54
2024-02-28T23:14:01.216Z,79.39
2024-02-28T23:16:29.248Z,79.45
2024-02-28T23:18:56.881Z,79.33
2024-02-28T23:21:23.778Z,79.24
2024-02-28T23:23:50.370Z,79.81
2024-02-28T23:26:16.862Z,79.68
2024-02-28T23:28:43.377Z,80.57
2024-02-28T23:31:09.947Z,80.28
2024-02-28T23:33:36.558Z,79.83
2024-02-28T23:36:03.164Z,79.63
2024-02-28T23:38:29.655Z,80.48
2024-02-28T23:40:56.192Z,80.65
2024-02-28T23:43:22.732Z,80.84
2024-02-28T23:45:49.240Z,79.99
2024-02-28T23:48:15.723Z,81.08
2024-02-28T23:50:49.708Z,80.21
2024-02-28T23:53:16.167Z,81.01
2024-02-28T23:55:43.153Z,80.74
2024-02-28T23:58:09.756Z,80.29
